METAR Data
IDs: Format: Raw Decoded Include TAF

Data at: 1954 UTC 17 Nov 2019

METAR for:PASD (Sand Point Arpt, AK, US)
Text:PASD 171952Z 27005KT 10SM FEW023 SCT032 05/01 A2962 RMK AO2 PNO $
Temperature: 5.0°C ( 41°F)
Dewpoint: 1.0°C ( 34°F) [RH = 75%]
Pressure (altimeter):29.62 inches Hg (1003.1 mb)
Winds:from the W (270 degrees) at 6 MPH (5 knots; 2.6 m/s)
Visibility:10 or more sm (16+ km)
Ceiling:at least 12,000 feet AGL
Clouds: few clouds at 2300 feet AGL, scattered clouds at 3200 feet AGL
QC Flag:SOME DATA ABOVE MAY BE INACCURATE!!!"$" is an indication the sensor requires maintenance.
Text:PASD 171901Z 28009KT 240V310 10SM FEW017 SCT032 BKN060 05/01 A2962 RMK AO2 PNO $
Temperature: 5.0°C ( 41°F)
Dewpoint: 1.0°C ( 34°F) [RH = 75%]
Pressure (altimeter):29.62 inches Hg (1003.1 mb)
Winds:from the W (280 degrees) at 10 MPH (9 knots; 4.6 m/s)
Visibility:10 or more sm (16+ km)
Ceiling:6000 feet AGL
Clouds: few clouds at 1700 feet AGL, scattered clouds at 3200 feet AGL, broken clouds at 6000 feet AGL
QC Flag:SOME DATA ABOVE MAY BE INACCURATE!!!"$" is an indication the sensor requires maintenance.
Text:PASD 171856Z 25010KT 10SM FEW017 SCT032 BKN060 05/01 A2961 RMK AO2 SLP030 T00500006 PNO $
Temperature: 5.0°C ( 41°F)
Dewpoint: 0.6°C ( 33°F) [RH = 73%]
Pressure (altimeter):29.61 inches Hg (1002.8 mb) [Sea level pressure: 1003.0 mb]
Winds:from the WSW (250 degrees) at 12 MPH (10 knots; 5.1 m/s)
Visibility:10 or more sm (16+ km)
Ceiling:6000 feet AGL
Clouds: few clouds at 1700 feet AGL, scattered clouds at 3200 feet AGL, broken clouds at 6000 feet AGL
QC Flag:SOME DATA ABOVE MAY BE INACCURATE!!!"$" is an indication the sensor requires maintenance.
Text:PASD 171854Z 24011KT 10SM FEW017 SCT032 BKN060 05/01 A2961 RMK AO2 PNO $
Temperature: 5.0°C ( 41°F)
Dewpoint: 1.0°C ( 34°F) [RH = 75%]
Pressure (altimeter):29.61 inches Hg (1002.8 mb)
Winds:from the WSW (240 degrees) at 13 MPH (11 knots; 5.7 m/s)
Visibility:10 or more sm (16+ km)
Ceiling:6000 feet AGL
Clouds: few clouds at 1700 feet AGL, scattered clouds at 3200 feet AGL, broken clouds at 6000 feet AGL
QC Flag:SOME DATA ABOVE MAY BE INACCURATE!!!"$" is an indication the sensor requires maintenance.
Text:PASD 171853Z 24010KT 10SM FEW017 BKN036 05/01 A2961 RMK AO2 PNO $
Temperature: 5.0°C ( 41°F)
Dewpoint: 1.0°C ( 34°F) [RH = 75%]
Pressure (altimeter):29.61 inches Hg (1002.8 mb)
Winds:from the WSW (240 degrees) at 12 MPH (10 knots; 5.1 m/s)
Visibility:10 or more sm (16+ km)
Ceiling:3600 feet AGL
Clouds: few clouds at 1700 feet AGL, broken clouds at 3600 feet AGL
QC Flag:SOME DATA ABOVE MAY BE INACCURATE!!!"$" is an indication the sensor requires maintenance.
Text:PASD 171756Z 25007KT 10SM FEW017 BKN036 04/01 A2960 RMK AO2 RAB39E52 SLP025 6//// T00440011 10044 20017 53010 PNO $
Temperature: 4.4°C ( 40°F)
Dewpoint: 1.1°C ( 34°F) [RH = 79%]
Pressure (altimeter):29.60 inches Hg (1002.5 mb) [Sea level pressure: 1002.5 mb]
Winds:from the WSW (250 degrees) at 8 MPH (7 knots; 3.6 m/s)
Visibility:10 or more sm (16+ km)
Ceiling:3600 feet AGL
Clouds: few clouds at 1700 feet AGL, broken clouds at 3600 feet AGL
QC Flag:SOME DATA ABOVE MAY BE INACCURATE!!!"$" is an indication the sensor requires maintenance.
Text:PASD 171753Z 25007KT 10SM FEW017 BKN036 04/01 A2960
Temperature: 4.0°C ( 39°F)
Dewpoint: 1.0°C ( 34°F) [RH = 81%]
Pressure (altimeter):29.60 inches Hg (1002.5 mb)
Winds:from the WSW (250 degrees) at 8 MPH (7 knots; 3.6 m/s)
Visibility:10 or more sm (16+ km)
Ceiling:3600 feet AGL
Clouds: few clouds at 1700 feet AGL, broken clouds at 3600 feet AGL
Text:PASD 171752Z 25008KT 10SM FEW017 BKN036 04/01 A2960 RMK AO2 RAB39E52 PNO $
Temperature: 4.0°C ( 39°F)
Dewpoint: 1.0°C ( 34°F) [RH = 81%]
Pressure (altimeter):29.60 inches Hg (1002.5 mb)
Winds:from the WSW (250 degrees) at 9 MPH (8 knots; 4.1 m/s)
Visibility:10 or more sm (16+ km)
Ceiling:3600 feet AGL
Clouds: few clouds at 1700 feet AGL, broken clouds at 3600 feet AGL
QC Flag:SOME DATA ABOVE MAY BE INACCURATE!!!"$" is an indication the sensor requires maintenance.
Text:PASD 171734Z 26010KT 10SM FEW017 BKN036 04/01 A2959 RMK AO2 PNO $
Temperature: 4.0°C ( 39°F)
Dewpoint: 1.0°C ( 34°F) [RH = 81%]
Pressure (altimeter):29.59 inches Hg (1002.1 mb)
Winds:from the W (260 degrees) at 12 MPH (10 knots; 5.1 m/s)
Visibility:10 or more sm (16+ km)
Ceiling:3600 feet AGL
Clouds: few clouds at 1700 feet AGL, broken clouds at 3600 feet AGL
QC Flag:SOME DATA ABOVE MAY BE INACCURATE!!!"$" is an indication the sensor requires maintenance.
Text:PASD 171657Z 26008KT 10SM FEW027 SCT050 04/00 A2958
Temperature: 4.0°C ( 39°F)
Dewpoint: 0.0°C ( 32°F) [RH = 75%]
Pressure (altimeter):29.58 inches Hg (1001.8 mb)
Winds:from the W (260 degrees) at 9 MPH (8 knots; 4.1 m/s)
Visibility:10 or more sm (16+ km)
Ceiling:at least 12,000 feet AGL
Clouds: few clouds at 2700 feet AGL, scattered clouds at 5000 feet AGL
Text:PASD 171656Z 24006KT 10SM FEW027 SCT050 04/00 A2958 RMK AO2 SLP020 T00440000 PNO $
Temperature: 4.4°C ( 40°F)
Dewpoint: 0.0°C ( 32°F) [RH = 73%]
Pressure (altimeter):29.58 inches Hg (1001.8 mb) [Sea level pressure: 1002.0 mb]
Winds:from the WSW (240 degrees) at 7 MPH (6 knots; 3.1 m/s)
Visibility:10 or more sm (16+ km)
Ceiling:at least 12,000 feet AGL
Clouds: few clouds at 2700 feet AGL, scattered clouds at 5000 feet AGL
QC Flag:SOME DATA ABOVE MAY BE INACCURATE!!!"$" is an indication the sensor requires maintenance.
Text:PASD 171651Z 25006KT 10SM FEW027 SCT050 04/00 A2958 RMK AO2 PNO $
Temperature: 4.0°C ( 39°F)
Dewpoint: 0.0°C ( 32°F) [RH = 75%]
Pressure (altimeter):29.58 inches Hg (1001.8 mb)
Winds:from the WSW (250 degrees) at 7 MPH (6 knots; 3.1 m/s)
Visibility:10 or more sm (16+ km)
Ceiling:at least 12,000 feet AGL
Clouds: few clouds at 2700 feet AGL, scattered clouds at 5000 feet AGL
QC Flag:SOME DATA ABOVE MAY BE INACCURATE!!!"$" is an indication the sensor requires maintenance.
Text:PASD 171604Z 00000KT 10SM FEW027 SCT050 03/M01 A2957 RMK AO2 PNO $
Temperature: 3.0°C ( 37°F)
Dewpoint: -1.0°C ( 30°F) [RH = 75%]
Pressure (altimeter):29.57 inches Hg (1001.4 mb)
Winds:calm
Visibility:10 or more sm (16+ km)
Ceiling:at least 12,000 feet AGL
Clouds: few clouds at 2700 feet AGL, scattered clouds at 5000 feet AGL
QC Flag:SOME DATA ABOVE MAY BE INACCURATE!!!"$" is an indication the sensor requires maintenance.
Text:PASD 171600Z 00000KT 10SM FEW027 SCT050 03/00 A2957
Temperature: 3.0°C ( 37°F)
Dewpoint: 0.0°C ( 32°F) [RH = 81%]
Pressure (altimeter):29.57 inches Hg (1001.4 mb)
Winds:calm
Visibility:10 or more sm (16+ km)
Ceiling:at least 12,000 feet AGL
Clouds: few clouds at 2700 feet AGL, scattered clouds at 5000 feet AGL
Text:PASD 171556Z AUTO 00000KT 10SM SCT029 SCT033 02/M01 A2957 RMK AO2 SLP015 T00221006 FZRANO PNO $
Temperature: 2.2°C ( 36°F)
Dewpoint: -0.6°C ( 31°F) [RH = 82%]
Pressure (altimeter):29.57 inches Hg (1001.4 mb) [Sea level pressure: 1001.5 mb]
Winds:calm
Visibility:10 or more sm (16+ km)
Ceiling:at least 12,000 feet AGL
Clouds: scattered clouds at 2900 feet AGL, scattered clouds at 3300 feet AGL
QC Flag:automated observation with no human augmentation; SOME DATA ABOVE MAY BE INACCURATE!!!"$" is an indication the sensor requires maintenance.
Text:PASD 171536Z AUTO 12003KT 10SM BKN029 03/M01 A2956 RMK AO2 PNO $
Temperature: 3.0°C ( 37°F)
Dewpoint: -1.0°C ( 30°F) [RH = 75%]
Pressure (altimeter):29.56 inches Hg (1001.1 mb)
Winds:from the ESE (120 degrees) at 3 MPH (3 knots; 1.5 m/s)
Visibility:10 or more sm (16+ km)
Ceiling:2900 feet AGL
Clouds: broken clouds at 2900 feet AGL
QC Flag:automated observation with no human augmentation; SOME DATA ABOVE MAY BE INACCURATE!!!"$" is an indication the sensor requires maintenance.
Text:PASD 171456Z AUTO 00000KT 10SM 03/M01 A2957 RMK AO2 SLP015 6//// T00281006 53013 PNO $
Temperature: 2.8°C ( 37°F)
Dewpoint: -0.6°C ( 31°F) [RH = 78%]
Pressure (altimeter):29.57 inches Hg (1001.4 mb) [Sea level pressure: 1001.5 mb]
Winds:calm
Visibility:10 or more sm (16+ km)
QC Flag:automated observation with no human augmentation; SOME DATA ABOVE MAY BE INACCURATE!!!"$" is an indication the sensor requires maintenance.

TAF for:PASD (Sand Point Arpt, AK, US) issued at 1738 UTC 17 Nov 2019
Text:PASD 171738Z 1718/1818 24006KT P6SM -SHRA FEW027 BKN050 BKN250
Forecast period:1800 UTC 17 November 2019 to 0300 UTC 18 November 2019
Forecast type:FROM: standard forecast or significant change
Winds:from the WSW (240 degrees) at 7 MPH (6 knots; 3.1 m/s)
Visibility:6 or more sm (10+ km)
Ceiling:5000 feet AGL
Clouds: few clouds at 2700 feet AGL, broken clouds at 5000 feet AGL, broken clouds at 25000 feet AGL
Weather:-SHRA (light rain showers)
Text:FM180300 19008KT P6SM -SHRA SCT025 BKN100 BKN200
Forecast period:0300 to 0600 UTC 18 November 2019
Forecast type:FROM: standard forecast or significant change
Winds:from the S (190 degrees) at 9 MPH (8 knots; 4.1 m/s)
Visibility:6 or more sm (10+ km)
Ceiling:10000 feet AGL
Clouds: scattered clouds at 2500 feet AGL, broken clouds at 10000 feet AGL, broken clouds at 20000 feet AGL
Weather:-SHRA (light rain showers)
Text:FM180600 17008KT P6SM -RA FEW007 SCT015 OVC025
Forecast period:0600 to 0900 UTC 18 November 2019
Forecast type:FROM: standard forecast or significant change
Winds:from the S (170 degrees) at 9 MPH (8 knots; 4.1 m/s)
Visibility:6 or more sm (10+ km)
Ceiling:2500 feet AGL
Clouds: few clouds at 700 feet AGL, scattered clouds at 1500 feet AGL, overcast cloud deck at 2500 feet AGL
Weather:-RA (light rain)
Text:FM180900 16008G16KT 6SM -RA BR SCT007 OVC015 AMD LTD TO CLD VIS AND WIND
Forecast period:0900 to 1800 UTC 18 November 2019
Forecast type:FROM: standard forecast or significant change
Winds:from the SSE (160 degrees) at 9 MPH (8 knots; 4.1 m/s) gusting to 18 MPH (16 knots; 8.2 m/s)
Visibility: 6 sm ( 10 km)
Ceiling:1500 feet AGL
Clouds: scattered clouds at 700 feet AGL, overcast cloud deck at 1500 feet AGL
Weather:-RA BR (light rain, mist)